createdAt,value
2023-03-29T00:01:00.460Z,63.55
2023-03-29T00:03:29.020Z,63.44
2023-03-29T00:06:03.577Z,63.54
2023-03-29T00:08:34.312Z,63.47
2023-03-29T00:11:03.038Z,63.43
2023-03-29T00:13:31.295Z,63.59
2023-03-29T00:15:59.542Z,63.46
2023-03-29T00:18:28.012Z,63.42
2023-03-29T00:20:57.614Z,63.55
2023-03-29T00:23:26.252Z,63.50
2023-03-29T00:25:54.658Z,63.39
2023-03-29T00:28:23.173Z,63.61
2023-03-29T00:30:51.683Z,63.44
2023-03-29T00:33:21.055Z,63.55
2023-03-29T00:35:49.484Z,63.70
2023-03-29T00:38:18.336Z,63.86
2023-03-29T00:40:47.236Z,63.82
2023-03-29T00:43:16.039Z,63.76
2023-03-29T00:45:44.367Z,63.97
2023-03-29T00:48:16.038Z,64.08
2023-03-29T00:51:04.247Z,64.10
2023-03-29T00:53:44.557Z,63.97
2023-03-29T00:56:18.232Z,64.26
2023-03-29T00:59:18.795Z,64.34
2023-03-29T01:01:55.201Z,64.24
2023-03-29T01:04:32.980Z,64.43
2023-03-29T01:07:13.308Z,64.59
2023-03-29T01:09:45.965Z,64.76
2023-03-29T01:12:20.238Z,64.75
2023-03-29T01:14:55.704Z,64.91
2023-03-29T01:17:25.807Z,65.00
2023-03-29T01:20:10.885Z,65.12
2023-03-29T01:22:57.347Z,65.27
2023-03-29T01:25:54.554Z,65.29
2023-03-29T01:28:30.250Z,65.30
2023-03-29T01:31:07.531Z,65.64
2023-03-29T01:33:48.549Z,65.73
2023-03-29T01:36:20.033Z,65.89
2023-03-29T01:38:59.632Z,66.09
2023-03-29T01:41:45.754Z,66.13
2023-03-29T01:44:45.761Z,66.41
2023-03-29T01:47:43.482Z,66.35
2023-03-29T01:50:18.210Z,66.61
2023-03-29T01:52:46.343Z,66.65
2023-03-29T01:55:21.081Z,66.81
2023-03-29T01:57:52.689Z,66.96
2023-03-29T02:00:27.784Z,67.00
2023-03-29T02:03:00.720Z,67.17
2023-03-29T02:05:31.992Z,67.25
2023-03-29T02:08:01.949Z,67.30
2023-03-29T02:10:34.452Z,67.27
2023-03-29T02:13:03.254Z,67.52
2023-03-29T02:15:34.474Z,67.52
2023-03-29T02:18:06.779Z,67.73
2023-03-29T02:20:43.089Z,67.75
2023-03-29T02:23:23.939Z,67.72
2023-03-29T02:25:57.149Z,67.82
2023-03-29T02:28:27.361Z,67.93
2023-03-29T02:31:23.018Z,68.17
2023-03-29T02:33:56.134Z,68.22
2023-03-29T02:36:31.209Z,68.26
2023-03-29T02:39:04.693Z,68.27
2023-03-29T02:41:34.115Z,68.36
2023-03-29T02:44:05.651Z,68.56
2023-03-29T02:46:35.459Z,68.66
2023-03-29T02:49:05.316Z,68.57
2023-03-29T02:51:34.840Z,68.74
2023-03-29T02:54:12.984Z,68.67
2023-03-29T02:57:03.722Z,68.78
2023-03-29T02:59:33.522Z,68.88
2023-03-29T03:02:01.649Z,68.95
2023-03-29T03:04:30.031Z,68.89
2023-03-29T03:06:58.040Z,68.79
2023-03-29T03:09:27.557Z,68.86
2023-03-29T03:11:56.239Z,68.80
2023-03-29T03:14:25.775Z,68.88
2023-03-29T03:16:55.252Z,68.97
2023-03-29T03:19:23.789Z,69.02
2023-03-29T03:21:51.859Z,69.24
2023-03-29T03:24:19.813Z,69.25
2023-03-29T03:26:48.007Z,69.47
2023-03-29T03:29:16.383Z,69.30
2023-03-29T03:32:04.595Z,69.44
2023-03-29T03:34:51.999Z,69.45
2023-03-29T03:37:23.834Z,69.44
2023-03-29T03:39:52.121Z,69.44
2023-03-29T03:42:20.790Z,69.69
2023-03-29T03:44:50.144Z,69.55
2023-03-29T03:47:48.509Z,69.46
2023-03-29T03:50:21.815Z,69.77
2023-03-29T03:52:50.134Z,69.86
2023-03-29T03:55:18.155Z,69.80
2023-03-29T03:58:05.287Z,70.01
2023-03-29T04:00:33.747Z,70.10
2023-03-29T04:03:14.859Z,70.20
2023-03-29T04:05:45.024Z,70.25
2023-03-29T04:08:14.232Z,70.35
2023-03-29T04:11:07.650Z,70.56
2023-03-29T04:13:38.270Z,70.66
2023-03-29T04:16:19.760Z,70.82
2023-03-29T04:18:47.968Z,70.81
2023-03-29T04:21:18.884Z,70.90
2023-03-29T04:23:49.305Z,71.15
2023-03-29T04:26:18.239Z,71.14
2023-03-29T04:28:52.461Z,71.20
2023-03-29T04:31:35.324Z,71.26
2023-03-29T04:34:26.391Z,71.30
2023-03-29T04:36:54.670Z,71.48
2023-03-29T04:39:32.325Z,71.76
2023-03-29T04:42:03.045Z,71.80
2023-03-29T04:44:34.202Z,71.74
2023-03-29T04:47:03.876Z,71.91
2023-03-29T04:49:53.637Z,71.93
2023-03-29T04:52:33.332Z,72.01
2023-03-29T04:55:03.221Z,71.99
2023-03-29T04:57:46.987Z,72.14
2023-03-29T05:00:27.307Z,72.26
2023-03-29T05:03:14.715Z,72.42
2023-03-29T05:06:12.192Z,72.11
2023-03-29T05:08:41.011Z,72.12
2023-03-29T05:11:25.442Z,72.38
2023-03-29T05:13:55.971Z,72.33
2023-03-29T05:16:26.555Z,72.35
2023-03-29T05:18:56.945Z,72.35
2023-03-29T05:21:28.884Z,72.44
2023-03-29T05:23:58.882Z,72.30
2023-03-29T05:26:45.098Z,72.37
2023-03-29T05:29:14.320Z,72.30
2023-03-29T05:31:43.656Z,72.26
2023-03-29T05:34:11.913Z,72.36
2023-03-29T05:36:43.447Z,72.24
2023-03-29T05:39:11.692Z,72.04
2023-03-29T05:41:40.606Z,72.30
2023-03-29T05:44:26.074Z,72.01
2023-03-29T05:46:59.314Z,71.99
2023-03-29T05:49:27.388Z,71.90
2023-03-29T05:52:15.911Z,71.83
2023-03-29T05:54:44.272Z,71.74
2023-03-29T05:57:12.869Z,71.53
2023-03-29T05:59:43.393Z,71.70
2023-03-29T06:02:12.532Z,71.67
2023-03-29T06:04:45.697Z,71.26
2023-03-29T06:07:26.013Z,71.06
2023-03-29T06:10:23.798Z,70.74
2023-03-29T06:12:56.959Z,70.76
2023-03-29T06:15:25.742Z,70.52
2023-03-29T06:18:09.943Z,70.60
2023-03-29T06:20:38.801Z,70.74
2023-03-29T06:23:10.997Z,70.36
2023-03-29T06:25:39.799Z,69.83
2023-03-29T06:28:07.872Z,69.63
2023-03-29T06:30:36.450Z,69.63
2023-03-29T06:33:07.309Z,69.52
2023-03-29T06:35:48.728Z,69.23
2023-03-29T06:38:21.087Z,68.28
2023-03-29T06:41:13.139Z,68.43
2023-03-29T06:44:04.309Z,68.19
2023-03-29T06:46:38.607Z,68.13
2023-03-29T06:49:08.751Z,67.86
2023-03-29T06:52:00.201Z,67.45
2023-03-29T06:54:28.243Z,67.59
2023-03-29T06:57:04.946Z,67.03
2023-03-29T06:59:35.107Z,67.22
2023-03-29T07:02:25.413Z,66.73
2023-03-29T07:05:01.505Z,66.56
2023-03-29T07:07:52.557Z,65.91
2023-03-29T07:10:35.468Z,65.76
2023-03-29T07:13:30.672Z,65.88
2023-03-29T07:16:00.154Z,65.11
2023-03-29T07:18:46.946Z,64.65
2023-03-29T07:21:29.063Z,64.04
2023-03-29T07:23:58.405Z,64.39
2023-03-29T07:26:28.754Z,64.27
2023-03-29T07:28:58.903Z,63.64
2023-03-29T07:31:29.476Z,63.20
2023-03-29T07:34:06.801Z,63.21
2023-03-29T07:36:34.888Z,63.06
2023-03-29T07:39:03.776Z,62.50
2023-03-29T07:41:34.339Z,61.87
2023-03-29T07:44:09.581Z,61.68
2023-03-29T07:46:39.406Z,61.73
2023-03-29T07:49:08.251Z,61.10
2023-03-29T07:51:37.171Z,60.57
2023-03-29T07:54:09.092Z,60.52
2023-03-29T07:56:47.764Z,59.46
2023-03-29T07:59:45.203Z,58.88
2023-03-29T08:02:19.725Z,58.39
2023-03-29T08:04:50.256Z,56.93
2023-03-29T08:07:19.989Z,55.59
2023-03-29T08:10:09.512Z,55.66
2023-03-29T08:13:08.507Z,55.87
2023-03-29T08:15:47.496Z,55.08
2023-03-29T08:18:29.815Z,54.47
2023-03-29T08:20:58.767Z,52.99
2023-03-29T08:23:27.237Z,53.04
2023-03-29T08:26:16.205Z,53.40
2023-03-29T08:28:44.919Z,53.29
2023-03-29T08:31:13.290Z,52.43
2023-03-29T08:33:47.354Z,52.19
2023-03-29T08:36:38.429Z,50.92
2023-03-29T08:39:12.214Z,50.53
2023-03-29T08:41:54.590Z,49.13
2023-03-29T08:44:42.003Z,48.31
2023-03-29T08:47:46.775Z,47.74
2023-03-29T08:50:16.042Z,46.90
2023-03-29T08:52:56.050Z,45.83
2023-03-29T08:55:45.706Z,45.67
2023-03-29T08:58:40.717Z,45.37
2023-03-29T09:01:11.739Z,43.83
2023-03-29T09:04:31.725Z,42.92
2023-03-29T09:07:10.294Z,40.47
2023-03-29T09:09:43.153Z,40.61
2023-03-29T09:12:32.227Z,40.53
2023-03-29T09:15:22.224Z,39.16
2023-03-29T09:18:19.628Z,37.97
2023-03-29T09:20:52.599Z,38.14
2023-03-29T09:23:34.923Z,37.83
2023-03-29T09:26:18.714Z,39.11
2023-03-29T09:29:33.294Z,39.22
2023-03-29T09:32:06.704Z,40.34
2023-03-29T09:34:49.180Z,40.32
2023-03-29T09:37:30.074Z,39.72
2023-03-29T09:39:58.543Z,39.76
2023-03-29T09:42:38.255Z,39.93
2023-03-29T09:45:08.850Z,39.94
2023-03-29T09:47:51.787Z,39.43
2023-03-29T09:50:31.318Z,39.66
2023-03-29T09:53:01.797Z,40.87
2023-03-29T09:55:33.989Z,39.09
2023-03-29T09:58:27.579Z,39.82
2023-03-29T10:01:01.648Z,40.04
2023-03-29T10:03:32.151Z,40.79
2023-03-29T10:06:12.278Z,41.23
2023-03-29T10:08:47.910Z,40.61
2023-03-29T10:11:29.140Z,40.07
2023-03-29T10:14:03.951Z,39.55
2023-03-29T10:16:40.439Z,39.69
2023-03-29T10:19:34.505Z,39.36
2023-03-29T10:22:07.792Z,40.01
2023-03-29T10:24:35.712Z,39.70
2023-03-29T10:27:10.732Z,39.07
2023-03-29T10:29:43.204Z,39.38
2023-03-29T10:32:26.349Z,39.46
2023-03-29T10:34:55.318Z,38.49
2023-03-29T10:37:23.936Z,38.70
2023-03-29T10:39:54.831Z,37.74
2023-03-29T10:42:25.296Z,38.42
2023-03-29T10:44:56.635Z,38.94
2023-03-29T10:47:25.593Z,38.78
2023-03-29T10:49:57.069Z,38.12
2023-03-29T10:52:26.191Z,37.68
2023-03-29T10:54:56.469Z,36.85
2023-03-29T10:57:45.768Z,36.68
2023-03-29T11:00:18.072Z,37.58
2023-03-29T11:03:09.838Z,35.70
2023-03-29T11:05:48.012Z,36.69
2023-03-29T11:08:58.844Z,37.35
2023-03-29T11:12:16.412Z,37.50
2023-03-29T11:15:03.122Z,35.50
2023-03-29T11:17:59.050Z,35.45
2023-03-29T11:20:42.334Z,34.77
2023-03-29T11:23:32.486Z,35.82
2023-03-29T11:26:18.503Z,35.51
2023-03-29T11:28:57.237Z,36.10
2023-03-29T11:31:53.001Z,36.58
2023-03-29T11:35:02.360Z,35.92
2023-03-29T11:38:14.510Z,36.51
2023-03-29T11:40:50.755Z,35.28
2023-03-29T11:43:35.218Z,35.91
2023-03-29T11:46:12.040Z,35.53
2023-03-29T11:48:53.966Z,36.16
2023-03-29T11:51:30.929Z,36.62
2023-03-29T11:54:14.293Z,36.58
2023-03-29T11:56:52.431Z,35.30
2023-03-29T11:59:28.922Z,34.05
2023-03-29T12:02:12.683Z,35.62
2023-03-29T12:04:48.609Z,35.23
2023-03-29T12:07:47.564Z,34.58
2023-03-29T12:10:27.648Z,35.36
2023-03-29T12:13:06.019Z,34.75
2023-03-29T12:15:45.999Z,33.67
2023-03-29T12:18:27.983Z,32.53
2023-03-29T12:21:07.187Z,33.10
2023-03-29T12:23:42.563Z,33.44
2023-03-29T12:26:33.924Z,33.33
2023-03-29T12:29:23.079Z,33.29
2023-03-29T12:32:22.554Z,32.92
2023-03-29T12:35:15.093Z,31.72
2023-03-29T12:38:10.020Z,32.16
2023-03-29T12:41:05.359Z,33.50
2023-03-29T12:44:03.789Z,32.72
2023-03-29T12:46:44.677Z,30.93
2023-03-29T12:49:32.918Z,30.88
2023-03-29T12:52:08.772Z,32.84
2023-03-29T12:54:36.851Z,33.15
2023-03-29T12:57:48.875Z,31.87
2023-03-29T13:00:27.161Z,31.36
2023-03-29T13:03:22.271Z,30.26
2023-03-29T13:06:04.166Z,29.20
2023-03-29T13:08:35.728Z,28.38
2023-03-29T13:11:05.898Z,29.29
2023-03-29T13:13:37.155Z,30.65
2023-03-29T13:16:19.615Z,30.66
2023-03-29T13:19:15.366Z,30.66
2023-03-29T13:21:54.102Z,28.97
2023-03-29T13:24:40.599Z,29.39
2023-03-29T13:27:26.319Z,29.29
2023-03-29T13:30:20.939Z,29.14
2023-03-29T13:33:16.368Z,28.36
2023-03-29T13:36:01.004Z,29.19
2023-03-29T13:38:33.028Z,30.22
2023-03-29T13:41:07.349Z,30.67
2023-03-29T13:43:44.934Z,30.25
2023-03-29T13:46:36.909Z,30.20
2023-03-29T13:49:18.340Z,29.48
2023-03-29T13:52:06.905Z,29.62
2023-03-29T13:55:00.842Z,29.43
2023-03-29T13:57:40.049Z,29.63
2023-03-29T14:00:28.783Z,30.15
2023-03-29T14:03:04.293Z,28.83
2023-03-29T14:05:40.199Z,28.91
2023-03-29T14:08:33.343Z,28.83
2023-03-29T14:11:05.136Z,28.60
2023-03-29T14:13:34.904Z,28.60
2023-03-29T14:16:12.379Z,28.59
2023-03-29T14:18:49.565Z,29.67
2023-03-29T14:21:20.619Z,29.74
2023-03-29T14:23:57.179Z,29.02
2023-03-29T14:26:30.891Z,29.18
2023-03-29T14:29:01.508Z,30.14
2023-03-29T14:31:36.175Z,29.39
2023-03-29T14:34:08.096Z,29.88
2023-03-29T14:36:36.527Z,29.07
2023-03-29T14:39:07.995Z,28.97
2023-03-29T14:41:38.249Z,28.15
2023-03-29T14:44:08.703Z,28.07
2023-03-29T14:46:37.187Z,28.48
2023-03-29T14:49:06.531Z,29.27
2023-03-29T14:51:37.737Z,28.74
2023-03-29T14:54:06.544Z,28.16
2023-03-29T14:56:34.883Z,28.00
2023-03-29T14:59:04.992Z,28.22
2023-03-29T15:01:33.545Z,28.53
2023-03-29T15:04:07.671Z,28.28
2023-03-29T15:06:41.817Z,27.91
2023-03-29T15:09:24.661Z,26.33
2023-03-29T15:11:58.822Z,26.91
2023-03-29T15:14:34.055Z,27.62
2023-03-29T15:17:20.884Z,27.41
2023-03-29T15:19:56.670Z,27.65
2023-03-29T15:22:32.100Z,27.65
2023-03-29T15:25:01.852Z,27.63
2023-03-29T15:27:41.968Z,27.56
2023-03-29T15:30:15.865Z,27.05
2023-03-29T15:32:44.455Z,27.77
2023-03-29T15:35:26.110Z,28.24
2023-03-29T15:37:54.183Z,28.23
2023-03-29T15:40:26.786Z,28.71
2023-03-29T15:42:55.738Z,29.03
2023-03-29T15:45:24.082Z,29.01
2023-03-29T15:47:52.555Z,28.86
2023-03-29T15:50:20.708Z,29.03
2023-03-29T15:52:48.959Z,28.99
2023-03-29T15:55:17.069Z,28.40
2023-03-29T15:57:48.448Z,29.53
2023-03-29T16:00:19.571Z,29.39
2023-03-29T16:02:47.622Z,29.41
2023-03-29T16:05:15.640Z,28.98
2023-03-29T16:07:44.130Z,29.17
2023-03-29T16:10:12.059Z,29.45
2023-03-29T16:12:40.788Z,29.98
2023-03-29T16:15:18.138Z,29.76
2023-03-29T16:17:46.071Z,30.15
2023-03-29T16:20:20.163Z,30.14
2023-03-29T16:22:49.072Z,30.43
2023-03-29T16:25:19.724Z,30.60
2023-03-29T16:27:47.783Z,30.85
2023-03-29T16:30:16.119Z,31.09
2023-03-29T16:32:44.201Z,31.66
2023-03-29T16:35:32.195Z,32.22
2023-03-29T16:38:00.525Z,31.70
2023-03-29T16:40:28.671Z,32.61
2023-03-29T16:42:56.650Z,33.46
2023-03-29T16:45:25.223Z,33.72
2023-03-29T16:47:54.712Z,33.71
2023-03-29T16:50:27.496Z,33.94
2023-03-29T16:52:56.113Z,34.46
2023-03-29T16:55:24.826Z,34.33
2023-03-29T16:57:52.850Z,34.98
2023-03-29T17:00:21.975Z,35.04
2023-03-29T17:02:50.079Z,35.66
2023-03-29T17:05:19.361Z,35.98
2023-03-29T17:07:47.554Z,35.38
2023-03-29T17:10:15.761Z,36.16
2023-03-29T17:12:43.850Z,36.40
2023-03-29T17:15:12.161Z,36.82
2023-03-29T17:17:40.277Z,37.40
2023-03-29T17:20:12.578Z,37.89
2023-03-29T17:22:41.510Z,38.43
2023-03-29T17:25:10.621Z,38.64
2023-03-29T17:27:38.843Z,39.04
2023-03-29T17:30:07.496Z,39.25
2023-03-29T17:32:36.710Z,40.16
2023-03-29T17:35:05.218Z,40.39
2023-03-29T17:37:33.423Z,40.84
2023-03-29T17:40:02.074Z,41.34
2023-03-29T17:42:30.053Z,41.62
2023-03-29T17:44:58.578Z,42.31
2023-03-29T17:47:26.629Z,42.55
2023-03-29T17:49:54.718Z,42.80
2023-03-29T17:52:22.843Z,43.09
2023-03-29T17:54:51.004Z,43.06
2023-03-29T17:57:19.264Z,43.47
2023-03-29T17:59:47.372Z,43.78
2023-03-29T18:02:21.233Z,43.83
2023-03-29T18:04:51.176Z,44.16
2023-03-29T18:07:19.768Z,44.61
2023-03-29T18:09:48.066Z,44.95
2023-03-29T18:12:16.818Z,45.08
2023-03-29T18:14:45.132Z,45.08
2023-03-29T18:17:13.153Z,45.23
2023-03-29T18:19:41.252Z,45.54
2023-03-29T18:22:12.580Z,45.60
2023-03-29T18:24:40.884Z,45.84
2023-03-29T18:27:09.181Z,45.99
2023-03-29T18:29:37.493Z,45.85
2023-03-29T18:32:06.378Z,45.88
2023-03-29T18:34:34.640Z,46.30
2023-03-29T18:37:04.413Z,46.57
2023-03-29T18:39:34.916Z,46.35
2023-03-29T18:42:03.102Z,46.34
2023-03-29T18:44:31.454Z,46.38
2023-03-29T18:47:02.640Z,46.91
2023-03-29T18:49:30.604Z,47.31
2023-03-29T18:51:58.953Z,47.31
2023-03-29T18:54:26.960Z,47.18
2023-03-29T18:56:57.205Z,46.84
2023-03-29T18:59:26.991Z,46.82
2023-03-29T19:01:55.065Z,46.43
2023-03-29T19:04:26.917Z,45.89
2023-03-29T19:06:56.428Z,46.32
2023-03-29T19:09:24.692Z,46.00
2023-03-29T19:11:54.982Z,45.23
2023-03-29T19:14:26.250Z,44.98
2023-03-29T19:16:54.522Z,45.44
2023-03-29T19:19:23.856Z,45.54
2023-03-29T19:21:53.553Z,44.99
2023-03-29T19:24:22.190Z,45.66
2023-03-29T19:26:53.510Z,45.66
2023-03-29T19:29:22.139Z,45.64
2023-03-29T19:31:51.958Z,45.34
2023-03-29T19:34:23.124Z,45.37
2023-03-29T19:36:53.520Z,45.51
2023-03-29T19:39:23.223Z,45.78
2023-03-29T19:41:51.502Z,45.64
2023-03-29T19:44:20.241Z,46.01
2023-03-29T19:46:48.152Z,45.86
2023-03-29T19:49:16.553Z,45.50
2023-03-29T19:51:45.193Z,45.45
2023-03-29T19:54:13.928Z,45.25
2023-03-29T19:56:43.076Z,45.68
2023-03-29T19:59:15.020Z,45.78
2023-03-29T20:01:51.419Z,45.87
2023-03-29T20:04:22.851Z,45.49
2023-03-29T20:06:51.098Z,45.87
2023-03-29T20:09:19.175Z,45.74
2023-03-29T20:11:47.446Z,45.77
2023-03-29T20:14:16.127Z,45.81
2023-03-29T20:16:45.128Z,45.28
2023-03-29T20:19:17.576Z,45.62
2023-03-29T20:21:50.944Z,46.31
2023-03-29T20:24:19.082Z,46.72
2023-03-29T20:26:47.024Z,47.03
2023-03-29T20:29:17.941Z,46.78
2023-03-29T20:31:48.101Z,46.60
2023-03-29T20:34:18.431Z,47.02
2023-03-29T20:36:46.998Z,47.27
2023-03-29T20:39:18.940Z,47.66
2023-03-29T20:41:48.004Z,47.31
2023-03-29T20:44:17.576Z,47.36
2023-03-29T20:46:54.692Z,47.89
2023-03-29T20:49:26.559Z,47.80
2023-03-29T20:51:58.927Z,47.28
2023-03-29T20:54:27.140Z,47.59
2023-03-29T20:56:55.122Z,47.87
2023-03-29T20:59:23.884Z,47.44
2023-03-29T21:01:52.261Z,47.58
2023-03-29T21:04:23.359Z,47.56
2023-03-29T21:06:51.540Z,47.51
2023-03-29T21:09:22.319Z,47.95
2023-03-29T21:11:50.848Z,48.15
2023-03-29T21:14:21.329Z,48.12
2023-03-29T21:16:49.667Z,48.36
2023-03-29T21:19:17.678Z,48.68
2023-03-29T21:21:47.563Z,48.85
2023-03-29T21:24:16.669Z,48.89
2023-03-29T21:26:48.665Z,48.88
2023-03-29T21:29:16.825Z,49.06
2023-03-29T21:31:45.584Z,49.16
2023-03-29T21:34:13.803Z,49.15
2023-03-29T21:36:42.491Z,49.40
2023-03-29T21:39:10.460Z,49.33
2023-03-29T21:41:38.505Z,49.15
2023-03-29T21:44:06.592Z,49.47
2023-03-29T21:46:34.635Z,49.28
2023-03-29T21:49:02.916Z,49.64
2023-03-29T21:51:31.173Z,49.27
2023-03-29T21:53:59.120Z,49.57
2023-03-29T21:56:28.391Z,49.44
2023-03-29T21:58:56.464Z,49.35
2023-03-29T22:01:24.695Z,49.38
2023-03-29T22:03:53.182Z,49.33
2023-03-29T22:06:21.400Z,49.34
2023-03-29T22:08:53.085Z,49.21
2023-03-29T22:11:21.671Z,49.46
2023-03-29T22:13:52.561Z,49.51
2023-03-29T22:16:22.343Z,49.28
2023-03-29T22:18:50.597Z,49.33
2023-03-29T22:21:22.563Z,49.46
2023-03-29T22:23:56.513Z,49.27
2023-03-29T22:26:28.349Z,49.33
2023-03-29T22:28:58.400Z,49.19
2023-03-29T22:31:28.150Z,49.43
2023-03-29T22:33:56.855Z,49.42
2023-03-29T22:36:27.268Z,49.27
2023-03-29T22:38:55.840Z,49.21
2023-03-29T22:41:26.185Z,49.31
2023-03-29T22:43:57.304Z,49.18
2023-03-29T22:46:26.464Z,49.00
2023-03-29T22:48:54.977Z,48.78
2023-03-29T22:51:23.603Z,49.08
2023-03-29T22:53:52.075Z,49.15
2023-03-29T22:56:20.511Z,49.16
2023-03-29T22:58:48.643Z,49.40
2023-03-29T23:01:16.956Z,49.26
2023-03-29T23:03:45.122Z,49.26
2023-03-29T23:06:13.198Z,49.24
2023-03-29T23:08:41.338Z,49.53
2023-03-29T23:11:09.320Z,49.34
2023-03-29T23:13:37.502Z,49.23
2023-03-29T23:16:05.956Z,49.17
2023-03-29T23:18:37.854Z,49.09
2023-03-29T23:21:06.869Z,49.31
2023-03-29T23:23:35.731Z,49.15
2023-03-29T23:26:04.042Z,49.36
2023-03-29T23:28:34.808Z,49.27
2023-03-29T23:31:11.723Z,49.27
2023-03-29T23:33:42.877Z,49.41
2023-03-29T23:36:17.669Z,49.36
2023-03-29T23:38:47.121Z,49.45
2023-03-29T23:41:16.778Z,49.56
2023-03-29T23:43:47.274Z,49.67
2023-03-29T23:46:17.710Z,49.68
2023-03-29T23:48:49.080Z,49.77
2023-03-29T23:51:18.923Z,49.91
2023-03-29T23:53:47.878Z,49.94
2023-03-29T23:56:16.301Z,50.12
2023-03-29T23:58:44.869Z,50.17
